TVF1760 LFML-LFPG
Flight info
| Callsign | TVF1760 |
|---|---|
| Flight time | N/A |
| Altitude | 34000 |
| Route | ETREK DCT RUSIT DCT BULOL DCT LOGNI DCT MOKIP DCT ARFOZ DCT TINIL |
| Aircraft | A320/M-SDE3FGHIRWY/LB1 |
Departure
| Time | 2026-05-04 20:51 |
|---|---|
| Airport | Marseille Provence Airport (LFML) |
Arrival
| Time | N/A |
|---|---|
| Airport | Charles de Gaulle International Airport (LFPG) |
| Time | Latitude | Longitude | Altitude | Speed | Heading |
|---|---|---|---|---|---|
| 2026-05-04 20:21 | 43.44158 | 5.21962 | 35 ft | 0 kts | 44° |
| 2026-05-04 20:38 | 43.44156 | 5.21959 | 35 ft | 3 kts | 44° |
| 2026-05-04 20:39 | 43.44136 | 5.21934 | 35 ft | 4 kts | 44° |
| 2026-05-04 20:39 | 43.44117 | 5.21909 | 35 ft | 4 kts | 32° |
| 2026-05-04 20:39 | 43.44094 | 5.21899 | 35 ft | 4 kts | 345° |
| 2026-05-04 20:39 | 43.44077 | 5.21911 | 35 ft | 1 kts | 314° |
| 2026-05-04 20:40 | 43.44075 | 5.21915 | 35 ft | 0 kts | 314° |
| 2026-05-04 20:43 | 43.44086 | 5.21899 | 35 ft | 3 kts | 314° |
| 2026-05-04 20:43 | 43.44105 | 5.21871 | 32 ft | 8 kts | 313° |
| 2026-05-04 20:43 | 43.44113 | 5.21793 | 31 ft | 8 kts | 229° |
| 2026-05-04 20:43 | 43.44084 | 5.21761 | 32 ft | 3 kts | 216° |
| 2026-05-04 20:44 | 43.44062 | 5.21739 | 33 ft | 3 kts | 216° |
| 2026-05-04 20:44 | 43.44051 | 5.21727 | 32 ft | 4 kts | 216° |
| 2026-05-04 20:44 | 43.44005 | 5.21681 | 33 ft | 12 kts | 216° |
| 2026-05-04 20:44 | 43.43931 | 5.21581 | 34 ft | 14 kts | 232° |
| 2026-05-04 20:45 | 43.43936 | 5.21469 | 31 ft | 11 kts | 303° |
| 2026-05-04 20:45 | 43.43982 | 5.21398 | 30 ft | 9 kts | 314° |
| 2026-05-04 20:45 | 43.44020 | 5.21344 | 29 ft | 7 kts | 314° |
| 2026-05-04 20:45 | 43.44052 | 5.21299 | 28 ft | 8 kts | 314° |
| 2026-05-04 20:46 | 43.44109 | 5.21217 | 29 ft | 15 kts | 312° |
| 2026-05-04 20:46 | 43.44194 | 5.21085 | 22 ft | 22 kts | 311° |
| 2026-05-04 20:46 | 43.44306 | 5.20901 | 18 ft | 28 kts | 305° |
| 2026-05-04 20:46 | 43.44422 | 5.20699 | 18 ft | 25 kts | 314° |
| 2026-05-04 20:47 | 43.44535 | 5.20542 | 18 ft | 20 kts | 315° |
| 2026-05-04 20:47 | 43.44623 | 5.20418 | 19 ft | 16 kts | 313° |
| 2026-05-04 20:47 | 43.44689 | 5.20323 | 17 ft | 12 kts | 313° |
| 2026-05-04 20:47 | 43.44735 | 5.20255 | 19 ft | 8 kts | 313° |
| 2026-05-04 20:48 | 43.44771 | 5.20203 | 17 ft | 7 kts | 313° |
| 2026-05-04 20:48 | 43.44808 | 5.20149 | 17 ft | 10 kts | 313° |
| 2026-05-04 20:48 | 43.44880 | 5.20047 | 19 ft | 16 kts | 314° |
| 2026-05-04 20:48 | 43.44947 | 5.19952 | 17 ft | 12 kts | 314° |
| 2026-05-04 20:49 | 43.44986 | 5.19879 | 18 ft | 7 kts | 282° |
| 2026-05-04 20:49 | 43.44963 | 5.19822 | 17 ft | 10 kts | 223° |
| 2026-05-04 20:49 | 43.44885 | 5.19771 | 18 ft | 15 kts | 165° |
| 2026-05-04 20:49 | 43.44820 | 5.19865 | 16 ft | 9 kts | 133° |
| 2026-05-04 20:50 | 43.44781 | 5.19920 | 16 ft | 31 kts | 134° |
| 2026-05-04 20:50 | 43.44468 | 5.20371 | 20 ft | 96 kts | 133° |
| 2026-05-04 20:50 | 43.43867 | 5.21240 | 43 ft | 144 kts | 130° |
| 2026-05-04 20:50 | 43.43157 | 5.22222 | 651 ft | 146 kts | 132° |
| 2026-05-04 20:51 | 43.42401 | 5.23225 | 1339 ft | 152 kts | 134° |
| 2026-05-04 20:51 | 43.41651 | 5.24241 | 2059 ft | 150 kts | 134° |
| 2026-05-04 20:51 | 43.40864 | 5.25283 | 2600 ft | 160 kts | 136° |
| 2026-05-04 20:51 | 43.40080 | 5.26437 | 3035 ft | 176 kts | 121° |
| 2026-05-04 20:52 | 43.39995 | 5.28238 | 3425 ft | 210 kts | 75° |
| 2026-05-04 20:52 | 43.40987 | 5.29823 | 4056 ft | 236 kts | 31° |
| 2026-05-04 20:52 | 43.42625 | 5.30238 | 4772 ft | 247 kts | 351° |
| 2026-05-04 20:52 | 43.44335 | 5.29648 | 5314 ft | 265 kts | 338° |
| 2026-05-04 20:53 | 43.46149 | 5.28754 | 5835 ft | 286 kts | 340° |
| 2026-05-04 20:53 | 43.48071 | 5.27899 | 6644 ft | 293 kts | 341° |
| 2026-05-04 20:53 | 43.50026 | 5.27059 | 7542 ft | 296 kts | 341° |
| 2026-05-04 20:53 | 43.51996 | 5.26212 | 8422 ft | 299 kts | 340° |
| 2026-05-04 20:54 | 43.54002 | 5.25341 | 9281 ft | 303 kts | 340° |
| 2026-05-04 20:54 | 43.56029 | 5.24454 | 10124 ft | 307 kts | 339° |
| 2026-05-04 20:54 | 43.58136 | 5.23516 | 10477 ft | 330 kts | 339° |
| 2026-05-04 20:54 | 43.60373 | 5.22510 | 10937 ft | 345 kts | 339° |
| 2026-05-04 20:55 | 43.62680 | 5.21475 | 11660 ft | 350 kts | 339° |
| 2026-05-04 20:55 | 43.65007 | 5.20431 | 12440 ft | 354 kts | 339° |
| 2026-05-04 20:55 | 43.67295 | 5.19405 | 13188 ft | 358 kts | 339° |
| 2026-05-04 20:55 | 43.69678 | 5.18332 | 13774 ft | 362 kts | 339° |
| 2026-05-04 20:56 | 43.72075 | 5.17249 | 13934 ft | 363 kts | 338° |
| 2026-05-04 20:56 | 43.74473 | 5.16134 | 13969 ft | 365 kts | 338° |
| 2026-05-04 20:56 | 43.76873 | 5.14996 | 13976 ft | 365 kts | 338° |
| 2026-05-04 20:56 | 43.79290 | 5.13837 | 14329 ft | 369 kts | 338° |
| 2026-05-04 20:57 | 43.81726 | 5.12672 | 15038 ft | 372 kts | 338° |
| 2026-05-04 20:57 | 43.84179 | 5.11502 | 15695 ft | 375 kts | 338° |
| 2026-05-04 20:57 | 43.86657 | 5.10323 | 16343 ft | 378 kts | 338° |
| 2026-05-04 20:57 | 43.89212 | 5.09322 | 16970 ft | 384 kts | 347° |
| 2026-05-04 20:58 | 43.91866 | 5.08708 | 17587 ft | 389 kts | 348° |
| 2026-05-04 20:58 | 43.94546 | 5.08098 | 18236 ft | 392 kts | 348° |
| 2026-05-04 20:58 | 43.97251 | 5.07484 | 18794 ft | 395 kts | 348° |
| 2026-05-04 20:58 | 43.99975 | 5.06864 | 19335 ft | 398 kts | 348° |
| 2026-05-04 20:59 | 44.02720 | 5.06238 | 19876 ft | 401 kts | 348° |
| 2026-05-04 20:59 | 44.05490 | 5.05606 | 20412 ft | 405 kts | 348° |
| 2026-05-04 20:59 | 44.08277 | 5.04966 | 20946 ft | 408 kts | 348° |
| 2026-05-04 20:59 | 44.11086 | 5.04323 | 21450 ft | 411 kts | 348° |
| 2026-05-04 21:00 | 44.13925 | 5.03674 | 21918 ft | 415 kts | 348° |
| 2026-05-04 21:00 | 44.16783 | 5.03018 | 22394 ft | 419 kts | 348° |
| 2026-05-04 21:00 | 44.19671 | 5.02352 | 22893 ft | 422 kts | 348° |
| 2026-05-04 21:00 | 44.22579 | 5.01678 | 23390 ft | 425 kts | 348° |
| 2026-05-04 21:01 | 44.25469 | 5.01005 | 23827 ft | 428 kts | 348° |
| 2026-05-04 21:01 | 44.28416 | 5.00320 | 24226 ft | 431 kts | 348° |
| 2026-05-04 21:01 | 44.31388 | 4.99632 | 24656 ft | 434 kts | 348° |
| 2026-05-04 21:01 | 44.34382 | 4.98942 | 24985 ft | 438 kts | 348° |
| 2026-05-04 21:02 | 44.37441 | 4.98237 | 25361 ft | 442 kts | 348° |
| 2026-05-04 21:02 | 44.40441 | 4.97544 | 25740 ft | 444 kts | 348° |
| 2026-05-04 21:02 | 44.43543 | 4.96823 | 26139 ft | 447 kts | 348° |
| 2026-05-04 21:02 | 44.46617 | 4.96106 | 26530 ft | 449 kts | 348° |
| 2026-05-04 21:03 | 44.49667 | 4.95393 | 26912 ft | 451 kts | 348° |
| 2026-05-04 21:03 | 44.52771 | 4.94662 | 27309 ft | 454 kts | 348° |
| 2026-05-04 21:03 | 44.55893 | 4.93927 | 27676 ft | 456 kts | 348° |
| 2026-05-04 21:03 | 44.59035 | 4.93197 | 28058 ft | 459 kts | 348° |
| 2026-05-04 21:04 | 44.62191 | 4.92468 | 28397 ft | 461 kts | 348° |
| 2026-05-04 21:04 | 44.65365 | 4.91731 | 28758 ft | 463 kts | 348° |
| 2026-05-04 21:04 | 44.68556 | 4.90985 | 29121 ft | 466 kts | 348° |
| 2026-05-04 21:04 | 44.71748 | 4.90156 | 29469 ft | 467 kts | 343° |
| 2026-05-04 21:05 | 44.73854 | 4.89291 | 29699 ft | 466 kts | 338° |
| 2026-05-04 21:05 | 44.76835 | 4.87643 | 30025 ft | 467 kts | 335° |
| 2026-05-04 21:05 | 44.79858 | 4.85931 | 30306 ft | 469 kts | 335° |
| 2026-05-04 21:05 | 44.82898 | 4.84216 | 30576 ft | 471 kts | 335° |
| 2026-05-04 21:06 | 44.85951 | 4.82496 | 30859 ft | 473 kts | 335° |
| 2026-05-04 21:06 | 44.89017 | 4.80769 | 31118 ft | 475 kts | 335° |
| 2026-05-04 21:06 | 44.92094 | 4.79034 | 31413 ft | 476 kts | 335° |
| 2026-05-04 21:06 | 44.95174 | 4.77295 | 31763 ft | 476 kts | 335° |
| 2026-05-04 21:07 | 44.98246 | 4.75556 | 32107 ft | 475 kts | 334° |
| 2026-05-04 21:07 | 45.01309 | 4.73814 | 32457 ft | 475 kts | 334° |
| 2026-05-04 21:07 | 45.04377 | 4.72069 | 32818 ft | 475 kts | 334° |
| 2026-05-04 21:07 | 45.07437 | 4.70327 | 33174 ft | 474 kts | 334° |
| 2026-05-04 21:08 | 45.10495 | 4.68588 | 33531 ft | 474 kts | 334° |
| 2026-05-04 21:08 | 45.13608 | 4.66970 | 33796 ft | 479 kts | 341° |
| 2026-05-04 21:08 | 45.16891 | 4.66033 | 33958 ft | 483 kts | 352° |
| 2026-05-04 21:08 | 45.20228 | 4.65912 | 33980 ft | 478 kts | 2° |
| 2026-05-04 21:09 | 45.23509 | 4.66592 | 33974 ft | 476 kts | 13° |
| 2026-05-04 21:09 | 45.26664 | 4.67993 | 33976 ft | 475 kts | 20° |
| 2026-05-04 21:09 | 45.32869 | 4.71223 | 33973 ft | 476 kts | 20° |
| 2026-05-04 21:10 | 45.39090 | 4.74463 | 33966 ft | 476 kts | 20° |
| 2026-05-04 21:10 | 45.45309 | 4.77717 | 33964 ft | 476 kts | 20° |
| 2026-05-04 21:11 | 45.51528 | 4.80986 | 33973 ft | 476 kts | 20° |
| 2026-05-04 21:11 | 45.57734 | 4.84255 | 33971 ft | 475 kts | 20° |
| 2026-05-04 21:12 | 45.63937 | 4.87529 | 33969 ft | 475 kts | 20° |
| 2026-05-04 21:12 | 45.70130 | 4.90808 | 33964 ft | 475 kts | 19° |
| 2026-05-04 21:13 | 45.76325 | 4.94094 | 33983 ft | 475 kts | 19° |
| 2026-05-04 21:13 | 45.82520 | 4.97388 | 33981 ft | 475 kts | 20° |
| 2026-05-04 21:14 | 45.88706 | 5.00691 | 33980 ft | 474 kts | 19° |
| 2026-05-04 21:14 | 45.94896 | 5.03995 | 33976 ft | 474 kts | 19° |
| 2026-05-04 21:15 | 46.01071 | 5.07298 | 33974 ft | 473 kts | 18° |
| 2026-05-04 21:15 | 46.07476 | 5.09175 | 33971 ft | 468 kts | 360° |
| 2026-05-04 21:16 | 46.13976 | 5.09237 | 33962 ft | 467 kts | 357° |
| 2026-05-04 21:16 | 46.20470 | 5.09259 | 33956 ft | 467 kts | 357° |
| 2026-05-04 21:17 | 46.26972 | 5.09287 | 33962 ft | 467 kts | 356° |
| 2026-05-04 21:17 | 46.33460 | 5.09314 | 33965 ft | 466 kts | 356° |
| 2026-05-04 21:18 | 46.39943 | 5.09341 | 33962 ft | 466 kts | 356° |
| 2026-05-04 21:18 | 46.46429 | 5.09362 | 33968 ft | 465 kts | 356° |
| 2026-05-04 21:19 | 46.52901 | 5.09387 | 33976 ft | 464 kts | 356° |
| 2026-05-04 21:19 | 46.59349 | 5.09425 | 33972 ft | 463 kts | 356° |
| 2026-05-04 21:20 | 46.65777 | 5.09456 | 33970 ft | 462 kts | 356° |
| 2026-05-04 21:20 | 46.72200 | 5.09479 | 33968 ft | 461 kts | 356° |
| 2026-05-04 21:21 | 46.78621 | 5.09505 | 33963 ft | 461 kts | 356° |
| 2026-05-04 21:21 | 46.85040 | 5.09531 | 33960 ft | 461 kts | 356° |
| 2026-05-04 21:22 | 46.91458 | 5.09561 | 33967 ft | 460 kts | 356° |
| 2026-05-04 21:22 | 46.97858 | 5.09583 | 33972 ft | 460 kts | 356° |
| 2026-05-04 21:23 | 47.04260 | 5.09609 | 33974 ft | 459 kts | 356° |
| 2026-05-04 21:23 | 47.10657 | 5.09637 | 33974 ft | 459 kts | 356° |
| 2026-05-04 21:24 | 47.17047 | 5.09663 | 33970 ft | 459 kts | 356° |
| 2026-05-04 21:24 | 47.23436 | 5.09697 | 33968 ft | 459 kts | 356° |
| 2026-05-04 21:25 | 47.29864 | 5.09731 | 33973 ft | 459 kts | 356° |
| 2026-05-04 21:25 | 47.36240 | 5.09756 | 33846 ft | 456 kts | 356° |
| 2026-05-04 21:26 | 47.39393 | 5.09770 | 33569 ft | 451 kts | 356° |
| 2026-05-04 21:26 | 47.42526 | 5.09787 | 33295 ft | 448 kts | 356° |
| 2026-05-04 21:26 | 47.45639 | 5.09803 | 33024 ft | 446 kts | 356° |
| 2026-05-04 21:26 | 47.48733 | 5.09819 | 32639 ft | 443 kts | 356° |
| 2026-05-04 21:27 | 47.51809 | 5.09837 | 32089 ft | 441 kts | 357° |
| 2026-05-04 21:27 | 47.54854 | 5.09658 | 31590 ft | 435 kts | 348° |
| 2026-05-04 21:27 | 47.57773 | 5.08720 | 31114 ft | 426 kts | 338° |
| 2026-05-04 21:27 | 47.60476 | 5.07058 | 30640 ft | 416 kts | 327° |
| 2026-05-04 21:28 | 47.62893 | 5.04796 | 30194 ft | 407 kts | 317° |
| 2026-05-04 21:28 | 47.65059 | 5.02134 | 29715 ft | 402 kts | 315° |
| 2026-05-04 21:28 | 47.67183 | 4.99476 | 29263 ft | 397 kts | 315° |
| 2026-05-04 21:28 | 47.69281 | 4.96851 | 28837 ft | 392 kts | 315° |
| 2026-05-04 21:29 | 47.71353 | 4.94254 | 28426 ft | 387 kts | 315° |
| 2026-05-04 21:29 | 47.73398 | 4.91683 | 28012 ft | 383 kts | 315° |
| 2026-05-04 21:29 | 47.75417 | 4.89131 | 27736 ft | 383 kts | 315° |
| 2026-05-04 21:29 | 47.77455 | 4.86537 | 27484 ft | 387 kts | 315° |
| 2026-05-04 21:30 | 47.79497 | 4.83937 | 27226 ft | 386 kts | 315° |
| 2026-05-04 21:30 | 47.81539 | 4.81338 | 26966 ft | 385 kts | 315° |
| 2026-05-04 21:30 | 47.83572 | 4.78755 | 26715 ft | 384 kts | 315° |
| 2026-05-04 21:30 | 47.85602 | 4.76172 | 26453 ft | 383 kts | 315° |
| 2026-05-04 21:31 | 47.89632 | 4.71042 | 25937 ft | 380 kts | 315° |
| 2026-05-04 21:31 | 47.91631 | 4.68490 | 25683 ft | 378 kts | 315° |
| 2026-05-04 21:31 | 47.93628 | 4.65938 | 25442 ft | 376 kts | 315° |
| 2026-05-04 21:32 | 47.95614 | 4.63399 | 25171 ft | 375 kts | 315° |
| 2026-05-04 21:32 | 47.97589 | 4.60868 | 24926 ft | 374 kts | 315° |
| 2026-05-04 21:32 | 47.99562 | 4.58337 | 24666 ft | 373 kts | 315° |
| 2026-05-04 21:32 | 48.01525 | 4.55820 | 24416 ft | 371 kts | 315° |
| 2026-05-04 21:33 | 48.03481 | 4.53313 | 24166 ft | 370 kts | 315° |
| 2026-05-04 21:33 | 48.05429 | 4.50810 | 23928 ft | 368 kts | 315° |
| 2026-05-04 21:33 | 48.07366 | 4.48319 | 23681 ft | 367 kts | 315° |
| 2026-05-04 21:33 | 48.09296 | 4.45833 | 23416 ft | 365 kts | 315° |
| 2026-05-04 21:34 | 48.11215 | 4.43357 | 23160 ft | 364 kts | 315° |
| 2026-05-04 21:34 | 48.13127 | 4.40892 | 22915 ft | 362 kts | 315° |
| 2026-05-04 21:34 | 48.15032 | 4.38433 | 22660 ft | 360 kts | 315° |
| 2026-05-04 21:34 | 48.16923 | 4.35987 | 22430 ft | 358 kts | 315° |
| 2026-05-04 21:35 | 48.18807 | 4.33548 | 22195 ft | 357 kts | 315° |
| 2026-05-04 21:35 | 48.20705 | 4.31088 | 21952 ft | 355 kts | 315° |
| 2026-05-04 21:35 | 48.22569 | 4.28665 | 21715 ft | 354 kts | 315° |
| 2026-05-04 21:35 | 48.24426 | 4.26250 | 21483 ft | 352 kts | 316° |
| 2026-05-04 21:36 | 48.26218 | 4.23830 | 21242 ft | 349 kts | 310° |
| 2026-05-04 21:36 | 48.27800 | 4.21031 | 21008 ft | 346 kts | 306° |
| 2026-05-04 21:36 | 48.29305 | 4.18281 | 20784 ft | 345 kts | 306° |
| 2026-05-04 21:36 | 48.30830 | 4.15504 | 20545 ft | 344 kts | 306° |
| 2026-05-04 21:37 | 48.32350 | 4.12736 | 20320 ft | 343 kts | 306° |
| 2026-05-04 21:37 | 48.33884 | 4.09940 | 20095 ft | 342 kts | 306° |
| 2026-05-04 21:37 | 48.35390 | 4.07192 | 19841 ft | 341 kts | 306° |
| 2026-05-04 21:37 | 48.36896 | 4.04451 | 19518 ft | 339 kts | 307° |
| 2026-05-04 21:38 | 48.38389 | 4.01726 | 19191 ft | 337 kts | 307° |
| 2026-05-04 21:38 | 48.39873 | 3.99006 | 18895 ft | 335 kts | 307° |
| 2026-05-04 21:38 | 48.41351 | 3.96291 | 18587 ft | 334 kts | 307° |
| 2026-05-04 21:38 | 48.42325 | 3.94503 | 18389 ft | 333 kts | 307° |
| 2026-05-04 21:39 | 48.43791 | 3.91812 | 18065 ft | 331 kts | 307° |
| 2026-05-04 21:39 | 48.45250 | 3.89136 | 17743 ft | 330 kts | 307° |
| 2026-05-04 21:39 | 48.46701 | 3.86472 | 17438 ft | 328 kts | 307° |
| 2026-05-04 21:39 | 48.48145 | 3.83814 | 17142 ft | 327 kts | 307° |
| 2026-05-04 21:40 | 48.49579 | 3.81164 | 16851 ft | 325 kts | 307° |
| 2026-05-04 21:40 | 48.51003 | 3.78526 | 16548 ft | 324 kts | 307° |
| 2026-05-04 21:40 | 48.52423 | 3.75898 | 16255 ft | 322 kts | 307° |
| 2026-05-04 21:40 | 48.53834 | 3.73266 | 15961 ft | 320 kts | 304° |
| 2026-05-04 21:41 | 48.55058 | 3.70484 | 15791 ft | 319 kts | 301° |
| 2026-05-04 21:41 | 48.56265 | 3.67677 | 15625 ft | 318 kts | 301° |
| 2026-05-04 21:41 | 48.57470 | 3.64880 | 15468 ft | 318 kts | 301° |
| 2026-05-04 21:41 | 48.58672 | 3.62086 | 15292 ft | 317 kts | 301° |
| 2026-05-04 21:42 | 48.59871 | 3.59293 | 15137 ft | 316 kts | 301° |
| 2026-05-04 21:42 | 48.61030 | 3.56475 | 14964 ft | 315 kts | 296° |
| 2026-05-04 21:42 | 48.61889 | 3.53441 | 14758 ft | 314 kts | 290° |
| 2026-05-04 21:42 | 48.62682 | 3.50377 | 14536 ft | 313 kts | 290° |
| 2026-05-04 21:43 | 48.63475 | 3.47314 | 14319 ft | 312 kts | 290° |
| 2026-05-04 21:43 | 48.64264 | 3.44259 | 14110 ft | 312 kts | 290° |
| 2026-05-04 21:43 | 48.65053 | 3.41205 | 13890 ft | 311 kts | 290° |
| 2026-05-04 21:43 | 48.65839 | 3.38154 | 13665 ft | 310 kts | 290° |
| 2026-05-04 21:44 | 48.66630 | 3.35073 | 13433 ft | 309 kts | 290° |
| 2026-05-04 21:44 | 48.67407 | 3.32045 | 13213 ft | 308 kts | 290° |
| 2026-05-04 21:44 | 48.68181 | 3.29027 | 13006 ft | 307 kts | 290° |
| 2026-05-04 21:44 | 48.68942 | 3.26054 | 12795 ft | 306 kts | 290° |
| 2026-05-04 21:45 | 48.69718 | 3.23027 | 12590 ft | 305 kts | 290° |
| 2026-05-04 21:45 | 48.70487 | 3.20029 | 12376 ft | 304 kts | 290° |
| 2026-05-04 21:45 | 48.71250 | 3.17050 | 12164 ft | 303 kts | 290° |
| 2026-05-04 21:45 | 48.72006 | 3.14081 | 11956 ft | 302 kts | 290° |
| 2026-05-04 21:46 | 48.72760 | 3.11114 | 11744 ft | 301 kts | 290° |
| 2026-05-04 21:46 | 48.73509 | 3.08161 | 11535 ft | 300 kts | 290° |
| 2026-05-04 21:46 | 48.74255 | 3.05217 | 11328 ft | 299 kts | 290° |
| 2026-05-04 21:46 | 48.74997 | 3.02280 | 11120 ft | 298 kts | 290° |
| 2026-05-04 21:47 | 48.75739 | 2.99346 | 10915 ft | 298 kts | 290° |
| 2026-05-04 21:47 | 48.76488 | 2.96385 | 10703 ft | 296 kts | 290° |
| 2026-05-04 21:47 | 48.77225 | 2.93472 | 10498 ft | 295 kts | 290° |
| 2026-05-04 21:47 | 48.77958 | 2.90575 | 10297 ft | 294 kts | 290° |
| 2026-05-04 21:48 | 48.78679 | 2.87678 | 10083 ft | 292 kts | 291° |
| 2026-05-04 21:48 | 48.79455 | 2.84835 | 9867 ft | 291 kts | 292° |
| 2026-05-04 21:48 | 48.80240 | 2.82017 | 9562 ft | 289 kts | 292° |
| 2026-05-04 21:48 | 48.81006 | 2.79254 | 9374 ft | 280 kts | 292° |
| 2026-05-04 21:49 | 48.81757 | 2.76558 | 9064 ft | 276 kts | 292° |
| 2026-05-04 21:49 | 48.82504 | 2.73873 | 8637 ft | 277 kts | 292° |
| 2026-05-04 21:49 | 48.83259 | 2.71139 | 8095 ft | 282 kts | 292° |
| 2026-05-04 21:49 | 48.84035 | 2.68303 | 7670 ft | 282 kts | 292° |
| 2026-05-04 21:50 | 48.84758 | 2.65645 | 7295 ft | 281 kts | 292° |
| 2026-05-04 21:50 | 48.85504 | 2.62878 | 6993 ft | 278 kts | 292° |
| 2026-05-04 21:50 | 48.86235 | 2.60146 | 6944 ft | 280 kts | 292° |
| 2026-05-04 21:50 | 48.86961 | 2.57405 | 6949 ft | 281 kts | 292° |
| 2026-05-04 21:52 | 48.90523 | 2.43938 | 6944 ft | 281 kts | 292° |
| 2026-05-04 21:52 | 48.91251 | 2.41180 | 6947 ft | 281 kts | 292° |
| 2026-05-04 21:52 | 48.91974 | 2.38440 | 6826 ft | 283 kts | 292° |
| 2026-05-04 21:52 | 48.92760 | 2.35456 | 5950 ft | 299 kts | 292° |
| 2026-05-04 21:53 | 48.93542 | 2.32472 | 5215 ft | 307 kts | 292° |